Luhe, China
Current Conditions -  °F | °C
As of 10:00 AM on Thursday 27 Nov 2014 (Local Time) from ZSNJ Reporting Station
Haze Haze  
Wind Chill: 57°   Ceiling: Unl
Heat Index: 57°   Visibility: 2.5mi
Dew Point: 52°   Wind: 7mph
Humidity: 82%   Direction: 130°SE
Pressure: 30.06"   Gusts: NA
Location:  32.34°N, 118.84°E
Report Text: ZSNJ 270200Z 13003MPS 090V160 4000 BR NSC 14/11 Q1018 NOSIG
Loading
Personal Weather Stations






























Interactive Weather Map New forecast layout! Learn more

10-Day Weather Forecast

Advertisements
Track Severe Weather on mobile